sensor_id;sensor_type;location;lat;lon;timestamp;P1;durP1;ratioP1;P2;durP2;ratioP2
19810;SDS011;10065;49.632;8.346;2022-10-16T00:01:31;4.83;;;0.60;;
19810;SDS011;10065;49.632;8.346;2022-10-16T00:03:59;3.30;;;0.70;;
19810;SDS011;10065;49.632;8.346;2022-10-16T00:06:29;1.80;;;0.50;;
19810;SDS011;10065;49.632;8.346;2022-10-16T00:08:57;2.50;;;0.40;;
19810;SDS011;10065;49.632;8.346;2022-10-16T00:11:26;0.80;;;0.50;;
19810;SDS011;10065;49.632;8.346;2022-10-16T00:13:55;1.87;;;0.37;;
19810;SDS011;10065;49.632;8.346;2022-10-16T00:16:25;1.90;;;0.70;;
19810;SDS011;10065;49.632;8.346;2022-10-16T00:18:53;0.87;;;0.30;;
19810;SDS011;10065;49.632;8.346;2022-10-16T00:21:22;1.10;;;0.47;;
19810;SDS011;10065;49.632;8.346;2022-10-16T00:23:53;1.27;;;0.40;;
19810;SDS011;10065;49.632;8.346;2022-10-16T00:26:22;0.90;;;0.30;;
19810;SDS011;10065;49.632;8.346;2022-10-16T00:28:50;0.60;;;0.30;;
19810;SDS011;10065;49.632;8.346;2022-10-16T00:31:19;0.57;;;0.30;;
19810;SDS011;10065;49.632;8.346;2022-10-16T00:33:48;1.73;;;0.50;;
19810;SDS011;10065;49.632;8.346;2022-10-16T00:36:17;1.80;;;0.80;;
19810;SDS011;10065;49.632;8.346;2022-10-16T00:38:46;0.80;;;0.50;;
19810;SDS011;10065;49.632;8.346;2022-10-16T00:41:20;1.10;;;0.60;;
19810;SDS011;10065;49.632;8.346;2022-10-16T00:43:50;1.83;;;0.60;;
19810;SDS011;10065;49.632;8.346;2022-10-16T00:46:19;1.87;;;0.60;;
19810;SDS011;10065;49.632;8.346;2022-10-16T00:48:50;0.80;;;0.60;;
19810;SDS011;10065;49.632;8.346;2022-10-16T00:51:22;1.40;;;0.63;;
19810;SDS011;10065;49.632;8.346;2022-10-16T00:53:52;1.47;;;0.60;;
19810;SDS011;10065;49.632;8.346;2022-10-16T00:56:21;4.40;;;0.73;;
19810;SDS011;10065;49.632;8.346;2022-10-16T00:58:49;2.03;;;0.80;;
19810;SDS011;10065;49.632;8.346;2022-10-16T01:01:17;3.00;;;0.70;;
19810;SDS011;10065;49.632;8.346;2022-10-16T01:03:45;1.77;;;0.67;;
19810;SDS011;10065;49.632;8.346;2022-10-16T01:06:19;5.40;;;0.77;;
19810;SDS011;10065;49.632;8.346;2022-10-16T01:09:04;1.23;;;0.50;;
19810;SDS011;10065;49.632;8.346;2022-10-16T01:11:41;1.10;;;0.60;;
19810;SDS011;10065;49.632;8.346;2022-10-16T01:14:19;1.13;;;0.70;;
19810;SDS011;10065;49.632;8.346;2022-10-16T01:16:52;1.60;;;0.67;;
19810;SDS011;10065;49.632;8.346;2022-10-16T01:19:26;2.17;;;0.53;;
19810;SDS011;10065;49.632;8.346;2022-10-16T01:22:08;2.43;;;0.70;;
19810;SDS011;10065;49.632;8.346;2022-10-16T01:24:38;2.20;;;0.70;;
19810;SDS011;10065;49.632;8.346;2022-10-16T01:27:09;3.63;;;0.77;;
19810;SDS011;10065;49.632;8.346;2022-10-16T01:29:42;0.77;;;0.57;;
19810;SDS011;10065;49.632;8.346;2022-10-16T01:32:17;1.33;;;0.70;;
19810;SDS011;10065;49.632;8.346;2022-10-16T01:34:51;2.60;;;0.93;;
19810;SDS011;10065;49.632;8.346;2022-10-16T01:37:22;0.97;;;0.60;;
19810;SDS011;10065;49.632;8.346;2022-10-16T01:39:59;2.37;;;0.70;;
19810;SDS011;10065;49.632;8.346;2022-10-16T01:42:32;1.40;;;0.80;;
19810;SDS011;10065;49.632;8.346;2022-10-16T01:45:05;4.33;;;1.20;;
19810;SDS011;10065;49.632;8.346;2022-10-16T01:47:37;6.23;;;1.00;;
19810;SDS011;10065;49.632;8.346;2022-10-16T01:50:06;3.67;;;0.90;;
19810;SDS011;10065;49.632;8.346;2022-10-16T01:52:36;4.47;;;0.90;;
19810;SDS011;10065;49.632;8.346;2022-10-16T01:55:07;1.20;;;0.60;;
19810;SDS011;10065;49.632;8.346;2022-10-16T01:57:39;3.07;;;1.10;;
19810;SDS011;10065;49.632;8.346;2022-10-16T02:00:12;5.47;;;1.10;;
19810;SDS011;10065;49.632;8.346;2022-10-16T02:02:44;1.67;;;0.90;;
19810;SDS011;10065;49.632;8.346;2022-10-16T02:05:18;7.63;;;1.33;;
19810;SDS011;10065;49.632;8.346;2022-10-16T02:07:49;4.37;;;0.97;;
19810;SDS011;10065;49.632;8.346;2022-10-16T02:10:17;4.63;;;0.90;;
19810;SDS011;10065;49.632;8.346;2022-10-16T02:12:48;1.93;;;0.80;;
19810;SDS011;10065;49.632;8.346;2022-10-16T02:15:20;2.20;;;0.97;;
19810;SDS011;10065;49.632;8.346;2022-10-16T02:17:48;2.13;;;1.17;;
19810;SDS011;10065;49.632;8.346;2022-10-16T02:20:16;1.87;;;1.00;;
19810;SDS011;10065;49.632;8.346;2022-10-16T02:22:45;1.43;;;0.90;;
19810;SDS011;10065;49.632;8.346;2022-10-16T02:25:17;4.57;;;1.00;;
19810;SDS011;10065;49.632;8.346;2022-10-16T02:27:52;3.23;;;1.10;;
19810;SDS011;10065;49.632;8.346;2022-10-16T02:30:24;2.23;;;1.00;;
19810;SDS011;10065;49.632;8.346;2022-10-16T02:32:54;2.30;;;1.20;;
19810;SDS011;10065;49.632;8.346;2022-10-16T02:35:23;1.83;;;1.20;;
19810;SDS011;10065;49.632;8.346;2022-10-16T02:37:53;2.80;;;1.50;;
19810;SDS011;10065;49.632;8.346;2022-10-16T02:40:23;3.87;;;1.43;;
19810;SDS011;10065;49.632;8.346;2022-10-16T02:42:53;4.03;;;1.30;;
19810;SDS011;10065;49.632;8.346;2022-10-16T02:45:21;3.33;;;1.37;;
19810;SDS011;10065;49.632;8.346;2022-10-16T02:47:50;3.23;;;1.50;;
19810;SDS011;10065;49.632;8.346;2022-10-16T02:50:17;3.13;;;1.30;;
19810;SDS011;10065;49.632;8.346;2022-10-16T02:52:45;3.37;;;1.37;;
19810;SDS011;10065;49.632;8.346;2022-10-16T02:55:13;4.93;;;1.80;;
19810;SDS011;10065;49.632;8.346;2022-10-16T02:57:41;4.00;;;1.67;;
19810;SDS011;10065;49.632;8.346;2022-10-16T03:00:11;5.33;;;2.03;;
19810;SDS011;10065;49.632;8.346;2022-10-16T03:02:40;6.10;;;2.20;;
19810;SDS011;10065;49.632;8.346;2022-10-16T03:05:09;3.50;;;1.83;;
19810;SDS011;10065;49.632;8.346;2022-10-16T03:07:37;5.30;;;2.03;;
19810;SDS011;10065;49.632;8.346;2022-10-16T03:10:05;4.33;;;1.83;;
19810;SDS011;10065;49.632;8.346;2022-10-16T03:12:33;7.70;;;2.53;;
19810;SDS011;10065;49.632;8.346;2022-10-16T03:15:01;4.60;;;2.67;;
19810;SDS011;10065;49.632;8.346;2022-10-16T03:17:31;4.73;;;2.83;;
19810;SDS011;10065;49.632;8.346;2022-10-16T03:19:59;5.70;;;2.60;;
19810;SDS011;10065;49.632;8.346;2022-10-16T03:22:26;7.80;;;2.80;;
19810;SDS011;10065;49.632;8.346;2022-10-16T03:24:54;6.27;;;2.73;;
19810;SDS011;10065;49.632;8.346;2022-10-16T03:27:22;5.87;;;2.63;;
19810;SDS011;10065;49.632;8.346;2022-10-16T03:29:50;6.00;;;3.13;;
19810;SDS011;10065;49.632;8.346;2022-10-16T03:32:18;5.97;;;2.80;;
19810;SDS011;10065;49.632;8.346;2022-10-16T03:34:47;7.67;;;3.50;;
19810;SDS011;10065;49.632;8.346;2022-10-16T03:37:15;4.77;;;2.80;;
19810;SDS011;10065;49.632;8.346;2022-10-16T03:39:43;10.70;;;3.27;;
19810;SDS011;10065;49.632;8.346;2022-10-16T03:42:10;7.40;;;3.00;;
19810;SDS011;10065;49.632;8.346;2022-10-16T03:44:38;7.10;;;3.00;;
19810;SDS011;10065;49.632;8.346;2022-10-16T03:47:06;5.87;;;3.10;;
19810;SDS011;10065;49.632;8.346;2022-10-16T03:49:34;11.37;;;3.40;;
19810;SDS011;10065;49.632;8.346;2022-10-16T03:52:03;7.63;;;3.30;;
19810;SDS011;10065;49.632;8.346;2022-10-16T03:54:30;7.13;;;3.40;;
19810;SDS011;10065;49.632;8.346;2022-10-16T03:56:58;5.80;;;3.27;;
19810;SDS011;10065;49.632;8.346;2022-10-16T03:59:26;10.13;;;3.20;;
19810;SDS011;10065;49.632;8.346;2022-10-16T04:01:53;4.60;;;3.27;;
19810;SDS011;10065;49.632;8.346;2022-10-16T04:04:21;5.53;;;3.30;;
19810;SDS011;10065;49.632;8.346;2022-10-16T04:06:48;4.47;;;2.80;;
19810;SDS011;10065;49.632;8.346;2022-10-16T04:09:17;5.17;;;3.00;;
19810;SDS011;10065;49.632;8.346;2022-10-16T04:11:45;9.87;;;3.23;;
19810;SDS011;10065;49.632;8.346;2022-10-16T04:14:13;7.73;;;3.07;;
19810;SDS011;10065;49.632;8.346;2022-10-16T04:16:41;5.30;;;3.10;;
19810;SDS011;10065;49.632;8.346;2022-10-16T04:19:08;7.57;;;3.40;;
19810;SDS011;10065;49.632;8.346;2022-10-16T04:21:36;4.50;;;3.10;;
19810;SDS011;10065;49.632;8.346;2022-10-16T04:24:04;5.47;;;3.27;;
19810;SDS011;10065;49.632;8.346;2022-10-16T04:26:33;11.40;;;3.30;;
19810;SDS011;10065;49.632;8.346;2022-10-16T04:29:01;11.67;;;3.60;;
19810;SDS011;10065;49.632;8.346;2022-10-16T04:31:29;5.03;;;2.77;;
19810;SDS011;10065;49.632;8.346;2022-10-16T04:33:56;9.17;;;2.73;;
19810;SDS011;10065;49.632;8.346;2022-10-16T04:36:24;4.30;;;2.80;;
19810;SDS011;10065;49.632;8.346;2022-10-16T04:38:54;5.50;;;3.00;;
19810;SDS011;10065;49.632;8.346;2022-10-16T04:41:22;7.83;;;3.07;;
19810;SDS011;10065;49.632;8.346;2022-10-16T04:43:51;7.37;;;2.87;;
19810;SDS011;10065;49.632;8.346;2022-10-16T04:46:18;4.07;;;2.50;;
19810;SDS011;10065;49.632;8.346;2022-10-16T04:48:46;5.57;;;3.27;;
19810;SDS011;10065;49.632;8.346;2022-10-16T04:51:14;9.03;;;3.10;;
19810;SDS011;10065;49.632;8.346;2022-10-16T04:53:41;12.20;;;2.77;;
19810;SDS011;10065;49.632;8.346;2022-10-16T04:56:09;5.27;;;2.90;;
19810;SDS011;10065;49.632;8.346;2022-10-16T04:58:37;5.97;;;3.47;;
19810;SDS011;10065;49.632;8.346;2022-10-16T05:01:06;8.63;;;3.33;;
19810;SDS011;10065;49.632;8.346;2022-10-16T05:03:33;7.20;;;3.20;;
19810;SDS011;10065;49.632;8.346;2022-10-16T05:06:01;7.60;;;3.20;;
19810;SDS011;10065;49.632;8.346;2022-10-16T05:08:30;9.83;;;3.50;;
19810;SDS011;10065;49.632;8.346;2022-10-16T05:10:57;6.80;;;3.27;;
19810;SDS011;10065;49.632;8.346;2022-10-16T05:13:26;6.30;;;3.13;;
19810;SDS011;10065;49.632;8.346;2022-10-16T05:15:53;7.53;;;3.33;;
19810;SDS011;10065;49.632;8.346;2022-10-16T05:18:22;6.77;;;3.53;;
19810;SDS011;10065;49.632;8.346;2022-10-16T05:20:50;6.37;;;3.00;;
19810;SDS011;10065;49.632;8.346;2022-10-16T05:23:18;6.10;;;3.10;;
19810;SDS011;10065;49.632;8.346;2022-10-16T05:25:51;7.50;;;3.23;;
19810;SDS011;10065;49.632;8.346;2022-10-16T05:28:20;9.73;;;2.90;;
19810;SDS011;10065;49.632;8.346;2022-10-16T05:30:48;7.97;;;2.80;;
19810;SDS011;10065;49.632;8.346;2022-10-16T05:33:16;7.50;;;2.87;;
19810;SDS011;10065;49.632;8.346;2022-10-16T05:35:45;4.77;;;2.83;;
19810;SDS011;10065;49.632;8.346;2022-10-16T05:38:13;4.00;;;2.70;;
19810;SDS011;10065;49.632;8.346;2022-10-16T05:40:40;5.87;;;3.20;;
19810;SDS011;10065;49.632;8.346;2022-10-16T05:43:08;4.70;;;2.90;;
19810;SDS011;10065;49.632;8.346;2022-10-16T05:45:36;4.60;;;3.10;;
19810;SDS011;10065;49.632;8.346;2022-10-16T05:48:04;8.77;;;3.20;;
19810;SDS011;10065;49.632;8.346;2022-10-16T05:50:32;9.57;;;3.60;;
19810;SDS011;10065;49.632;8.346;2022-10-16T05:53:01;6.93;;;3.30;;
19810;SDS011;10065;49.632;8.346;2022-10-16T05:55:29;7.03;;;3.30;;
19810;SDS011;10065;49.632;8.346;2022-10-16T05:57:57;4.93;;;2.90;;
19810;SDS011;10065;49.632;8.346;2022-10-16T06:00:24;5.00;;;2.73;;
19810;SDS011;10065;49.632;8.346;2022-10-16T06:02:52;4.67;;;3.40;;
19810;SDS011;10065;49.632;8.346;2022-10-16T06:05:21;8.40;;;3.50;;
19810;SDS011;10065;49.632;8.346;2022-10-16T06:07:48;7.93;;;3.50;;
19810;SDS011;10065;49.632;8.346;2022-10-16T06:10:17;6.20;;;3.53;;
19810;SDS011;10065;49.632;8.346;2022-10-16T06:12:45;7.43;;;3.73;;
19810;SDS011;10065;49.632;8.346;2022-10-16T06:15:13;8.93;;;3.50;;
19810;SDS011;10065;49.632;8.346;2022-10-16T06:17:40;11.13;;;3.87;;
19810;SDS011;10065;49.632;8.346;2022-10-16T06:20:08;6.93;;;3.70;;
19810;SDS011;10065;49.632;8.346;2022-10-16T06:22:36;13.47;;;4.13;;
19810;SDS011;10065;49.632;8.346;2022-10-16T06:25:04;7.13;;;3.67;;
19810;SDS011;10065;49.632;8.346;2022-10-16T06:27:33;7.20;;;3.83;;
19810;SDS011;10065;49.632;8.346;2022-10-16T06:30:01;14.27;;;4.27;;
19810;SDS011;10065;49.632;8.346;2022-10-16T06:32:29;6.23;;;3.70;;
19810;SDS011;10065;49.632;8.346;2022-10-16T06:34:57;6.87;;;3.70;;
19810;SDS011;10065;49.632;8.346;2022-10-16T06:37:25;8.67;;;3.60;;
19810;SDS011;10065;49.632;8.346;2022-10-16T06:39:54;6.13;;;3.67;;
19810;SDS011;10065;49.632;8.346;2022-10-16T06:42:22;9.37;;;4.20;;
19810;SDS011;10065;49.632;8.346;2022-10-16T06:44:51;6.13;;;3.57;;
19810;SDS011;10065;49.632;8.346;2022-10-16T06:47:19;6.23;;;3.87;;
19810;SDS011;10065;49.632;8.346;2022-10-16T06:49:47;8.63;;;3.47;;
19810;SDS011;10065;49.632;8.346;2022-10-16T06:52:19;8.30;;;3.83;;
19810;SDS011;10065;49.632;8.346;2022-10-16T06:54:47;7.30;;;4.37;;
19810;SDS011;10065;49.632;8.346;2022-10-16T06:57:14;6.40;;;4.00;;
19810;SDS011;10065;49.632;8.346;2022-10-16T06:59:42;7.57;;;4.03;;
19810;SDS011;10065;49.632;8.346;2022-10-16T07:02:13;7.83;;;3.50;;
19810;SDS011;10065;49.632;8.346;2022-10-16T07:04:41;10.37;;;4.17;;
19810;SDS011;10065;49.632;8.346;2022-10-16T07:07:09;9.00;;;4.10;;
19810;SDS011;10065;49.632;8.346;2022-10-16T07:09:36;5.23;;;3.60;;
19810;SDS011;10065;49.632;8.346;2022-10-16T07:12:04;5.73;;;3.90;;
19810;SDS011;10065;49.632;8.346;2022-10-16T07:14:32;7.03;;;4.03;;
19810;SDS011;10065;49.632;8.346;2022-10-16T07:16:59;7.03;;;3.97;;
19810;SDS011;10065;49.632;8.346;2022-10-16T07:19:28;10.27;;;4.20;;
19810;SDS011;10065;49.632;8.346;2022-10-16T07:21:59;8.27;;;3.77;;
19810;SDS011;10065;49.632;8.346;2022-10-16T07:24:27;6.20;;;3.77;;
19810;SDS011;10065;49.632;8.346;2022-10-16T07:26:55;9.57;;;3.93;;
19810;SDS011;10065;49.632;8.346;2022-10-16T07:29:23;6.73;;;4.17;;
19810;SDS011;10065;49.632;8.346;2022-10-16T07:31:50;12.03;;;4.00;;
19810;SDS011;10065;49.632;8.346;2022-10-16T07:34:18;6.10;;;3.60;;
19810;SDS011;10065;49.632;8.346;2022-10-16T07:36:49;7.60;;;4.27;;
19810;SDS011;10065;49.632;8.346;2022-10-16T07:39:17;9.77;;;4.00;;
19810;SDS011;10065;49.632;8.346;2022-10-16T07:41:45;10.10;;;4.00;;
19810;SDS011;10065;49.632;8.346;2022-10-16T07:44:13;6.17;;;3.73;;
19810;SDS011;10065;49.632;8.346;2022-10-16T07:46:40;7.00;;;4.17;;
19810;SDS011;10065;49.632;8.346;2022-10-16T07:49:08;6.50;;;4.00;;
19810;SDS011;10065;49.632;8.346;2022-10-16T07:51:36;8.07;;;3.73;;
19810;SDS011;10065;49.632;8.346;2022-10-16T07:54:09;8.90;;;4.17;;
19810;SDS011;10065;49.632;8.346;2022-10-16T07:56:36;6.83;;;3.47;;
19810;SDS011;10065;49.632;8.346;2022-10-16T07:59:09;6.00;;;3.67;;
19810;SDS011;10065;49.632;8.346;2022-10-16T08:01:37;7.80;;;3.80;;
19810;SDS011;10065;49.632;8.346;2022-10-16T08:04:04;11.87;;;4.57;;
19810;SDS011;10065;49.632;8.346;2022-10-16T08:06:34;7.20;;;3.90;;
19810;SDS011;10065;49.632;8.346;2022-10-16T08:09:03;8.40;;;4.37;;
19810;SDS011;10065;49.632;8.346;2022-10-16T08:11:33;7.73;;;4.10;;
19810;SDS011;10065;49.632;8.346;2022-10-16T08:14:00;8.47;;;4.10;;
19810;SDS011;10065;49.632;8.346;2022-10-16T08:16:28;11.57;;;3.93;;
19810;SDS011;10065;49.632;8.346;2022-10-16T08:18:56;10.47;;;4.70;;
19810;SDS011;10065;49.632;8.346;2022-10-16T08:21:23;10.70;;;6.27;;
19810;SDS011;10065;49.632;8.346;2022-10-16T08:23:52;9.00;;;5.53;;
19810;SDS011;10065;49.632;8.346;2022-10-16T08:26:23;10.53;;;4.50;;
19810;SDS011;10065;49.632;8.346;2022-10-16T08:28:54;8.20;;;4.83;;
19810;SDS011;10065;49.632;8.346;2022-10-16T08:31:22;11.83;;;4.63;;
19810;SDS011;10065;49.632;8.346;2022-10-16T08:33:50;12.77;;;5.33;;
19810;SDS011;10065;49.632;8.346;2022-10-16T08:36:19;10.33;;;5.43;;
19810;SDS011;10065;49.632;8.346;2022-10-16T08:38:47;12.73;;;5.17;;
19810;SDS011;10065;49.632;8.346;2022-10-16T08:41:35;9.30;;;4.93;;
19810;SDS011;10065;49.632;8.346;2022-10-16T08:44:30;7.97;;;5.23;;
19810;SDS011;10065;49.632;8.346;2022-10-16T08:47:11;9.97;;;5.57;;
19810;SDS011;10065;49.632;8.346;2022-10-16T08:49:51;10.47;;;5.30;;
19810;SDS011;10065;49.632;8.346;2022-10-16T08:52:24;10.00;;;5.03;;
19810;SDS011;10065;49.632;8.346;2022-10-16T08:54:56;10.77;;;5.27;;
19810;SDS011;10065;49.632;8.346;2022-10-16T08:57:25;9.37;;;4.80;;
19810;SDS011;10065;49.632;8.346;2022-10-16T08:59:55;11.20;;;5.50;;
19810;SDS011;10065;49.632;8.346;2022-10-16T09:02:29;10.33;;;6.70;;
19810;SDS011;10065;49.632;8.346;2022-10-16T09:05:03;9.57;;;5.47;;
19810;SDS011;10065;49.632;8.346;2022-10-16T09:07:46;9.03;;;5.43;;
19810;SDS011;10065;49.632;8.346;2022-10-16T09:10:25;8.23;;;5.37;;
19810;SDS011;10065;49.632;8.346;2022-10-16T09:13:01;9.87;;;5.10;;
19810;SDS011;10065;49.632;8.346;2022-10-16T09:15:39;9.33;;;5.40;;
19810;SDS011;10065;49.632;8.346;2022-10-16T09:18:12;8.50;;;4.80;;
19810;SDS011;10065;49.632;8.346;2022-10-16T09:20:48;8.37;;;4.70;;
19810;SDS011;10065;49.632;8.346;2022-10-16T09:23:19;9.43;;;5.13;;
19810;SDS011;10065;49.632;8.346;2022-10-16T09:25:52;7.17;;;4.80;;
19810;SDS011;10065;49.632;8.346;2022-10-16T09:28:21;9.40;;;4.43;;
19810;SDS011;10065;49.632;8.346;2022-10-16T09:30:50;9.87;;;4.57;;
19810;SDS011;10065;49.632;8.346;2022-10-16T09:33:19;8.13;;;4.13;;
19810;SDS011;10065;49.632;8.346;2022-10-16T09:35:49;11.33;;;5.07;;
19810;SDS011;10065;49.632;8.346;2022-10-16T09:38:22;8.13;;;4.30;;
19810;SDS011;10065;49.632;8.346;2022-10-16T09:40:52;6.50;;;3.40;;
19810;SDS011;10065;49.632;8.346;2022-10-16T09:43:29;4.73;;;3.57;;
19810;SDS011;10065;49.632;8.346;2022-10-16T09:46:04;7.50;;;3.83;;
19810;SDS011;10065;49.632;8.346;2022-10-16T09:48:36;7.17;;;3.17;;
19810;SDS011;10065;49.632;8.346;2022-10-16T09:51:13;6.17;;;3.03;;
19810;SDS011;10065;49.632;8.346;2022-10-16T09:53:46;7.13;;;3.23;;
19810;SDS011;10065;49.632;8.346;2022-10-16T09:56:21;10.07;;;4.23;;
19810;SDS011;10065;49.632;8.346;2022-10-16T09:58:51;9.53;;;4.20;;
19810;SDS011;10065;49.632;8.346;2022-10-16T10:01:21;7.07;;;4.10;;
19810;SDS011;10065;49.632;8.346;2022-10-16T10:03:55;6.67;;;4.00;;
19810;SDS011;10065;49.632;8.346;2022-10-16T10:06:27;5.93;;;3.20;;
19810;SDS011;10065;49.632;8.346;2022-10-16T10:08:58;6.93;;;3.23;;
19810;SDS011;10065;49.632;8.346;2022-10-16T10:11:42;6.07;;;2.37;;
19810;SDS011;10065;49.632;8.346;2022-10-16T10:14:15;5.03;;;2.30;;
19810;SDS011;10065;49.632;8.346;2022-10-16T10:16:51;5.10;;;2.57;;
19810;SDS011;10065;49.632;8.346;2022-10-16T10:19:20;5.67;;;2.50;;
19810;SDS011;10065;49.632;8.346;2022-10-16T10:21:49;3.50;;;2.07;;
19810;SDS011;10065;49.632;8.346;2022-10-16T10:24:18;4.83;;;2.67;;
19810;SDS011;10065;49.632;8.346;2022-10-16T10:26:48;5.63;;;2.70;;
19810;SDS011;10065;49.632;8.346;2022-10-16T10:29:30;5.73;;;2.93;;
19810;SDS011;10065;49.632;8.346;2022-10-16T10:32:12;7.30;;;3.30;;
19810;SDS011;10065;49.632;8.346;2022-10-16T10:35:05;6.00;;;2.73;;
19810;SDS011;10065;49.632;8.346;2022-10-16T10:37:45;6.80;;;2.70;;
19810;SDS011;10065;49.632;8.346;2022-10-16T10:40:23;4.60;;;3.00;;
19810;SDS011;10065;49.632;8.346;2022-10-16T10:43:03;6.73;;;2.57;;
19810;SDS011;10065;49.632;8.346;2022-10-16T10:45:41;6.07;;;2.83;;
19810;SDS011;10065;49.632;8.346;2022-10-16T10:48:19;7.90;;;2.83;;
19810;SDS011;10065;49.632;8.346;2022-10-16T10:50:56;4.93;;;2.80;;
19810;SDS011;10065;49.632;8.346;2022-10-16T10:53:32;4.33;;;2.53;;
19810;SDS011;10065;49.632;8.346;2022-10-16T10:56:12;6.87;;;2.87;;
19810;SDS011;10065;49.632;8.346;2022-10-16T10:58:52;3.97;;;2.73;;
19810;SDS011;10065;49.632;8.346;2022-10-16T11:01:31;5.68;;;2.35;;
19810;SDS011;10065;49.632;8.346;2022-10-16T11:04:19;4.10;;;2.30;;
19810;SDS011;10065;49.632;8.346;2022-10-16T11:06:57;5.53;;;2.00;;
19810;SDS011;10065;49.632;8.346;2022-10-16T11:09:28;3.83;;;1.95;;
19810;SDS011;10065;49.632;8.346;2022-10-16T11:12:01;7.38;;;2.58;;
19810;SDS011;10065;49.632;8.346;2022-10-16T11:14:34;4.32;;;2.05;;
19810;SDS011;10065;49.632;8.346;2022-10-16T11:17:07;4.53;;;2.10;;
19810;SDS011;10065;49.632;8.346;2022-10-16T11:19:41;7.43;;;2.50;;
19810;SDS011;10065;49.632;8.346;2022-10-16T11:22:15;5.03;;;2.90;;
19810;SDS011;10065;49.632;8.346;2022-10-16T11:24:47;4.80;;;3.13;;
19810;SDS011;10065;49.632;8.346;2022-10-16T11:27:22;5.32;;;2.90;;
19810;SDS011;10065;49.632;8.346;2022-10-16T11:30:08;4.60;;;2.28;;
19810;SDS011;10065;49.632;8.346;2022-10-16T11:32:48;10.65;;;3.20;;
19810;SDS011;10065;49.632;8.346;2022-10-16T11:35:23;6.97;;;3.00;;
19810;SDS011;10065;49.632;8.346;2022-10-16T11:37:58;8.55;;;3.08;;
19810;SDS011;10065;49.632;8.346;2022-10-16T11:40:31;7.07;;;2.08;;
19810;SDS011;10065;49.632;8.346;2022-10-16T11:43:02;8.02;;;2.80;;
19810;SDS011;10065;49.632;8.346;2022-10-16T11:45:39;6.75;;;3.33;;
19810;SDS011;10065;49.632;8.346;2022-10-16T11:48:14;6.57;;;2.63;;
19810;SDS011;10065;49.632;8.346;2022-10-16T11:50:51;5.55;;;2.55;;
19810;SDS011;10065;49.632;8.346;2022-10-16T11:53:23;4.95;;;2.38;;
19810;SDS011;10065;49.632;8.346;2022-10-16T11:56:03;6.40;;;2.70;;
19810;SDS011;10065;49.632;8.346;2022-10-16T11:58:32;6.13;;;3.00;;
19810;SDS011;10065;49.632;8.346;2022-10-16T12:01:17;7.00;;;2.77;;
19810;SDS011;10065;49.632;8.346;2022-10-16T12:03:59;5.17;;;2.70;;
19810;SDS011;10065;49.632;8.346;2022-10-16T12:06:44;3.73;;;2.47;;
19810;SDS011;10065;49.632;8.346;2022-10-16T12:09:19;6.37;;;2.50;;
19810;SDS011;10065;49.632;8.346;2022-10-16T12:11:50;7.10;;;2.57;;
19810;SDS011;10065;49.632;8.346;2022-10-16T12:17:27;7.77;;;2.83;;
19810;SDS011;10065;49.632;8.346;2022-10-16T12:20:18;8.90;;;3.30;;
19810;SDS011;10065;49.632;8.346;2022-10-16T12:22:51;7.70;;;2.80;;
19810;SDS011;10065;49.632;8.346;2022-10-16T12:25:22;10.83;;;3.73;;
19810;SDS011;10065;49.632;8.346;2022-10-16T12:27:55;7.10;;;4.13;;
19810;SDS011;10065;49.632;8.346;2022-10-16T12:30:24;7.80;;;4.20;;
19810;SDS011;10065;49.632;8.346;2022-10-16T12:32:59;8.30;;;4.07;;
19810;SDS011;10065;49.632;8.346;2022-10-16T12:35:30;8.97;;;3.73;;
19810;SDS011;10065;49.632;8.346;2022-10-16T12:38:08;7.20;;;3.70;;
19810;SDS011;10065;49.632;8.346;2022-10-16T12:40:43;8.17;;;4.20;;
19810;SDS011;10065;49.632;8.346;2022-10-16T12:43:34;7.90;;;4.07;;
19810;SDS011;10065;49.632;8.346;2022-10-16T12:46:06;5.90;;;4.10;;
19810;SDS011;10065;49.632;8.346;2022-10-16T12:48:49;5.33;;;3.27;;
19810;SDS011;10065;49.632;8.346;2022-10-16T12:51:34;5.67;;;3.53;;
19810;SDS011;10065;49.632;8.346;2022-10-16T12:54:04;5.78;;;3.40;;
19810;SDS011;10065;49.632;8.346;2022-10-16T12:56:42;5.38;;;2.95;;
19810;SDS011;10065;49.632;8.346;2022-10-16T12:59:20;5.93;;;2.42;;
19810;SDS011;10065;49.632;8.346;2022-10-16T13:05:16;4.90;;;2.65;;
19810;SDS011;10065;49.632;8.346;2022-10-16T13:07:56;7.18;;;2.75;;
19810;SDS011;10065;49.632;8.346;2022-10-16T13:10:36;5.35;;;3.08;;
19810;SDS011;10065;49.632;8.346;2022-10-16T13:16:03;4.85;;;2.67;;
19810;SDS011;10065;49.632;8.346;2022-10-16T13:18:43;5.43;;;3.58;;
19810;SDS011;10065;49.632;8.346;2022-10-16T13:21:22;11.98;;;4.15;;
19810;SDS011;10065;49.632;8.346;2022-10-16T13:24:02;7.90;;;3.95;;
19810;SDS011;10065;49.632;8.346;2022-10-16T13:26:42;4.27;;;3.30;;
19810;SDS011;10065;49.632;8.346;2022-10-16T13:29:16;6.87;;;2.70;;
19810;SDS011;10065;49.632;8.346;2022-10-16T13:31:46;6.47;;;2.80;;
19810;SDS011;10065;49.632;8.346;2022-10-16T13:34:15;7.10;;;2.90;;
19810;SDS011;10065;49.632;8.346;2022-10-16T13:36:47;8.60;;;2.83;;
19810;SDS011;10065;49.632;8.346;2022-10-16T13:39:20;4.23;;;2.67;;
19810;SDS011;10065;49.632;8.346;2022-10-16T13:42:03;5.00;;;2.63;;
19810;SDS011;10065;49.632;8.346;2022-10-16T13:44:35;6.10;;;2.93;;
19810;SDS011;10065;49.632;8.346;2022-10-16T13:47:10;4.70;;;2.73;;
19810;SDS011;10065;49.632;8.346;2022-10-16T13:49:43;5.97;;;2.97;;
19810;SDS011;10065;49.632;8.346;2022-10-16T13:52:17;8.13;;;2.77;;
19810;SDS011;10065;49.632;8.346;2022-10-16T13:54:46;3.53;;;2.20;;
19810;SDS011;10065;49.632;8.346;2022-10-16T13:57:16;6.97;;;2.93;;
19810;SDS011;10065;49.632;8.346;2022-10-16T13:59:53;6.77;;;3.17;;
19810;SDS011;10065;49.632;8.346;2022-10-16T14:02:22;5.63;;;2.60;;
19810;SDS011;10065;49.632;8.346;2022-10-16T14:04:54;6.37;;;2.97;;
19810;SDS011;10065;49.632;8.346;2022-10-16T14:07:25;6.20;;;3.30;;
19810;SDS011;10065;49.632;8.346;2022-10-16T14:09:55;7.07;;;4.57;;
19810;SDS011;10065;49.632;8.346;2022-10-16T14:12:28;9.43;;;5.43;;
19810;SDS011;10065;49.632;8.346;2022-10-16T14:14:57;7.07;;;3.70;;
19810;SDS011;10065;49.632;8.346;2022-10-16T14:17:27;6.47;;;3.50;;
19810;SDS011;10065;49.632;8.346;2022-10-16T14:19:57;11.10;;;3.83;;
19810;SDS011;10065;49.632;8.346;2022-10-16T14:22:31;5.63;;;3.10;;
19810;SDS011;10065;49.632;8.346;2022-10-16T14:25:01;5.53;;;2.97;;
19810;SDS011;10065;49.632;8.346;2022-10-16T14:27:31;7.60;;;3.67;;
19810;SDS011;10065;49.632;8.346;2022-10-16T14:32:55;8.03;;;3.10;;
19810;SDS011;10065;49.632;8.346;2022-10-16T14:35:25;5.27;;;3.13;;
19810;SDS011;10065;49.632;8.346;2022-10-16T14:37:55;10.40;;;3.40;;
19810;SDS011;10065;49.632;8.346;2022-10-16T14:40:25;7.17;;;3.37;;
19810;SDS011;10065;49.632;8.346;2022-10-16T14:42:55;7.17;;;3.40;;
19810;SDS011;10065;49.632;8.346;2022-10-16T14:45:24;7.17;;;3.07;;
19810;SDS011;10065;49.632;8.346;2022-10-16T14:47:55;7.80;;;2.87;;
19810;SDS011;10065;49.632;8.346;2022-10-16T14:50:25;4.77;;;3.10;;
19810;SDS011;10065;49.632;8.346;2022-10-16T14:52:52;5.80;;;2.80;;
19810;SDS011;10065;49.632;8.346;2022-10-16T14:55:20;7.10;;;2.90;;
19810;SDS011;10065;49.632;8.346;2022-10-16T14:57:49;8.50;;;3.07;;
19810;SDS011;10065;49.632;8.346;2022-10-16T15:00:24;9.43;;;3.23;;
19810;SDS011;10065;49.632;8.346;2022-10-16T15:02:52;4.13;;;2.93;;
19810;SDS011;10065;49.632;8.346;2022-10-16T15:05:20;7.27;;;3.07;;
19810;SDS011;10065;49.632;8.346;2022-10-16T15:07:49;9.07;;;4.67;;
19810;SDS011;10065;49.632;8.346;2022-10-16T15:10:21;11.77;;;5.50;;
19810;SDS011;10065;49.632;8.346;2022-10-16T15:12:50;11.97;;;6.23;;
19810;SDS011;10065;49.632;8.346;2022-10-16T15:15:25;10.40;;;5.10;;
19810;SDS011;10065;49.632;8.346;2022-10-16T15:17:59;9.33;;;5.63;;
19810;SDS011;10065;49.632;8.346;2022-10-16T15:20:28;9.73;;;4.77;;
19810;SDS011;10065;49.632;8.346;2022-10-16T15:23:00;8.07;;;4.77;;